Pagrindinis puslapis
METAR-TAF:

METAR-TAF

Oro uostai :

Tinian, Marianų salos, Jungtinės Amerikos Valstijos

platuma: 14-59N, ilguma: 145-37E, Aukštis: 82 m

Dabartinis oras

Ataskaita buvo paskelbta 1 valandą ir 31 minutes, ne 08:50 UTC
Vėjas 12 kt iš Rytų
Temperatūra 29°C
Drėgmė 79%
Slėgis 1012 hPa
Matomumas: 11.3 km
Mažai debesys ne aukštis 1600 ft
Išsisklaidę debesys ne aukštis 8000 ft

METAR: PGWT 220850Z 09012KT 7SM FEW016 SCT080 29/25 A2989 RMK LAST

Laikas: 20:21 (10:21 UTC)

Prognozė

Ataskaita buvo paskelbta 5 valandos ir 1 minutes, ne 05:20 UTC
Prognozė galioja nuo 22 metu 06 UTC su 23 metu 06 UTC
Vėjas 12 kt iš Rytų su gūsio iki 20 kt
Matomumas: 10 km
Išsisklaidę debesys ne aukštis 2500 ft
Nuo 22 metu 0900 UTC
Vėjas 8 kt iš Rytų
Matomumas: 10 km
Mažai debesys ne aukštis 2000 ft
Liūtis kaimynystėje,

TAF: PGWT 220520Z 2206/2306 09012G20KT P6SM SCT025 FM220900 09008KT P6SM VCSH FEW020

Orai ataskaitas ir orų prognozės (METAR, TAF).

turimą stotys yra geltonos ir raudonos taškus žemėlapyje.

Perkelti pele per norėdami pamatyti stoties vardą.

Tada spustelėkite, norėdami matyti oro stebėjimo ir prognozės.

Norėdami pakeisti žemėlapį: spustelėkite ant žalios mygtukų su juodo kryžiaus žemyn,; žalią mygtuką su brūkšneliu, jei norite nutolinti; arba žalių rodyklių gretimoms žemėlapius.


METAR-TAF: